createdAt,value
2017-08-17T00:02:25.992Z,21.90
2017-08-17T00:04:54.277Z,21.90
2017-08-17T00:07:22.549Z,21.90
2017-08-17T00:09:50.808Z,21.90
2017-08-17T00:12:19.138Z,21.80
2017-08-17T00:14:47.416Z,21.70
2017-08-17T00:17:15.710Z,21.60
2017-08-17T00:19:44.762Z,21.50
2017-08-17T00:22:13.032Z,21.50
2017-08-17T00:24:41.309Z,21.50
2017-08-17T00:27:10.324Z,21.40
2017-08-17T00:29:38.649Z,21.40
2017-08-17T00:32:07.689Z,21.40
2017-08-17T00:34:35.987Z,21.30
2017-08-17T00:37:05.119Z,21.20
2017-08-17T00:39:33.415Z,21.20
2017-08-17T00:42:01.672Z,21.20
2017-08-17T00:44:29.948Z,21.20
2017-08-17T00:46:59.002Z,21.10
2017-08-17T00:49:27.252Z,21.10
2017-08-17T00:51:55.529Z,21.10
2017-08-17T00:54:23.830Z,21.10
2017-08-17T00:56:52.168Z,21.10
2017-08-17T00:59:21.270Z,21.00
2017-08-17T01:01:49.558Z,21.00
2017-08-17T01:04:17.820Z,20.90
2017-08-17T01:06:46.123Z,20.90
2017-08-17T01:09:15.136Z,20.80
2017-08-17T01:11:43.413Z,20.80
2017-08-17T01:14:11.677Z,20.70
2017-08-17T01:16:39.971Z,20.70
2017-08-17T01:19:08.985Z,20.60
2017-08-17T01:21:37.289Z,20.50
2017-08-17T01:24:05.594Z,20.50
2017-08-17T01:26:33.882Z,20.50
2017-08-17T01:29:02.197Z,20.50
2017-08-17T01:31:31.214Z,20.40
2017-08-17T01:33:59.507Z,20.40
2017-08-17T01:36:27.785Z,20.50
2017-08-17T01:38:56.050Z,20.40
2017-08-17T01:41:24.300Z,20.50
2017-08-17T01:43:52.609Z,20.50
2017-08-17T01:46:20.889Z,20.50
2017-08-17T01:48:49.187Z,20.40
2017-08-17T01:51:18.229Z,20.40
2017-08-17T01:53:46.518Z,20.40
2017-08-17T01:56:14.777Z,20.40
2017-08-17T01:58:43.049Z,20.30
2017-08-17T02:01:12.073Z,20.30
2017-08-17T02:03:40.329Z,20.20
2017-08-17T02:06:08.608Z,20.20
2017-08-17T02:08:36.865Z,20.10
2017-08-17T02:11:05.145Z,20.20
2017-08-17T02:13:33.412Z,20.20
2017-08-17T02:16:01.711Z,20.10
2017-08-17T02:18:29.970Z,20.10
2017-08-17T02:20:58.270Z,20.10
2017-08-17T02:23:26.558Z,20.10
2017-08-17T02:25:54.826Z,20.10
2017-08-17T02:28:23.899Z,20.00
2017-08-17T02:30:52.185Z,20.00
2017-08-17T02:33:20.475Z,20.00
2017-08-17T02:35:48.745Z,20.00
2017-08-17T02:38:17.001Z,20.00
2017-08-17T02:40:45.256Z,19.90
2017-08-17T02:43:13.541Z,19.80
2017-08-17T02:45:41.891Z,19.80
2017-08-17T02:48:10.184Z,19.70
2017-08-17T02:50:39.228Z,19.60
2017-08-17T02:53:07.485Z,19.60
2017-08-17T02:55:35.753Z,19.60
2017-08-17T02:58:04.066Z,19.60
2017-08-17T03:00:32.408Z,19.60
2017-08-17T03:03:01.474Z,19.60
2017-08-17T03:05:29.778Z,19.60
2017-08-17T03:07:58.066Z,19.50
2017-08-17T03:10:26.325Z,19.50
2017-08-17T03:12:54.642Z,19.50
2017-08-17T03:15:22.936Z,19.50
2017-08-17T03:17:53.142Z,19.60
2017-08-17T03:20:21.438Z,19.50
2017-08-17T03:22:49.717Z,19.40
2017-08-17T03:25:18.769Z,19.30
2017-08-17T03:27:47.032Z,19.40
2017-08-17T03:30:15.319Z,19.40
2017-08-17T03:32:44.374Z,19.40
2017-08-17T03:35:12.646Z,19.30
2017-08-17T03:37:41.670Z,19.30
2017-08-17T03:40:09.930Z,19.30
2017-08-17T03:42:38.243Z,19.20
2017-08-17T03:45:07.173Z,19.20
2017-08-17T03:47:35.467Z,19.20
2017-08-17T03:50:03.740Z,19.20
2017-08-17T03:52:32.772Z,19.20
2017-08-17T03:55:01.133Z,19.20
2017-08-17T03:57:29.409Z,19.20
2017-08-17T03:59:57.689Z,19.30
2017-08-17T04:02:26.746Z,19.20
2017-08-17T04:04:55.062Z,19.20
2017-08-17T04:07:23.354Z,19.20
2017-08-17T04:09:51.638Z,19.20
2017-08-17T04:12:19.952Z,19.20
2017-08-17T04:14:48.217Z,19.20
2017-08-17T04:17:16.468Z,19.20
2017-08-17T04:19:44.794Z,19.30
2017-08-17T04:22:13.808Z,19.90
2017-08-17T04:24:42.057Z,19.90
2017-08-17T04:27:10.377Z,20.30
2017-08-17T04:29:38.670Z,20.70
2017-08-17T04:32:06.950Z,21.00
2017-08-17T04:34:35.233Z,21.20
2017-08-17T04:37:03.484Z,21.50
2017-08-17T04:39:31.773Z,21.70
2017-08-17T04:42:00.049Z,21.80
2017-08-17T04:44:29.098Z,22.10
2017-08-17T04:46:57.344Z,22.10
2017-08-17T04:49:25.652Z,22.30
2017-08-17T04:51:54.689Z,22.50
2017-08-17T04:54:22.676Z,22.50
2017-08-17T04:57:21.369Z,22.70
2017-08-17T04:59:49.656Z,22.60
2017-08-17T05:02:17.895Z,22.80
2017-08-17T05:04:46.200Z,22.80
2017-08-17T05:07:14.453Z,22.90
2017-08-17T05:09:42.700Z,23.00
2017-08-17T05:12:10.990Z,23.00
2017-08-17T05:14:39.242Z,23.10
2017-08-17T05:17:07.540Z,23.20
2017-08-17T05:19:35.854Z,23.20
2017-08-17T05:22:04.134Z,23.30
2017-08-17T05:24:32.381Z,23.30
2017-08-17T05:27:00.644Z,23.40
2017-08-17T05:29:28.893Z,23.50
2017-08-17T05:31:57.179Z,23.50
2017-08-17T05:34:26.243Z,23.60
2017-08-17T05:36:54.517Z,23.60
2017-08-17T05:39:22.790Z,23.70
2017-08-17T05:41:51.828Z,23.70
2017-08-17T05:44:20.119Z,23.70
2017-08-17T05:46:49.170Z,23.80
2017-08-17T05:49:17.515Z,23.80
2017-08-17T05:51:45.765Z,23.90
2017-08-17T05:54:14.010Z,23.90
2017-08-17T05:56:43.762Z,23.90
2017-08-17T05:59:12.840Z,24.00
2017-08-17T06:01:41.093Z,24.00
2017-08-17T06:04:09.373Z,24.10
2017-08-17T06:06:38.393Z,24.10
2017-08-17T06:09:06.682Z,24.10
2017-08-17T06:11:35.027Z,24.20
2017-08-17T06:14:03.303Z,24.20
2017-08-17T06:16:31.573Z,24.20
2017-08-17T06:18:59.832Z,24.30
2017-08-17T06:21:28.078Z,24.30
2017-08-17T06:23:56.363Z,24.30
2017-08-17T06:26:24.670Z,24.40
2017-08-17T06:28:52.912Z,24.40
2017-08-17T06:31:21.199Z,24.40
2017-08-17T06:33:49.505Z,24.40
2017-08-17T06:36:17.785Z,24.50
2017-08-17T06:38:46.062Z,24.50
2017-08-17T06:41:14.368Z,24.60
2017-08-17T06:43:42.617Z,24.60
2017-08-17T06:46:10.908Z,24.60
2017-08-17T06:48:39.957Z,24.70
2017-08-17T06:51:08.259Z,24.60
2017-08-17T06:53:37.315Z,24.70
2017-08-17T06:56:05.584Z,24.70
2017-08-17T06:58:34.602Z,24.80
2017-08-17T07:01:02.846Z,24.80
2017-08-17T07:03:31.108Z,24.80
2017-08-17T07:05:59.389Z,24.80
2017-08-17T07:08:27.680Z,24.80
2017-08-17T07:10:56.252Z,24.90
2017-08-17T07:13:24.497Z,24.90
2017-08-17T07:15:52.782Z,24.90
2017-08-17T07:18:21.048Z,24.90
2017-08-17T07:20:49.292Z,25.00
2017-08-17T07:23:17.579Z,25.00
2017-08-17T07:25:45.886Z,25.00
2017-08-17T07:28:14.216Z,25.00
2017-08-17T07:30:42.461Z,25.00
2017-08-17T07:33:10.741Z,25.00
2017-08-17T07:35:39.786Z,25.10
2017-08-17T07:38:08.044Z,25.10
2017-08-17T07:40:36.300Z,25.10
2017-08-17T07:43:04.598Z,25.10
2017-08-17T07:45:32.695Z,25.20
2017-08-17T07:48:00.956Z,25.20
2017-08-17T07:50:29.715Z,25.20
2017-08-17T07:52:57.989Z,25.20
2017-08-17T07:55:26.298Z,25.20
2017-08-17T07:57:54.561Z,25.30
2017-08-17T08:00:22.659Z,25.30
2017-08-17T08:02:50.920Z,25.30
2017-08-17T08:05:19.164Z,25.30
2017-08-17T08:07:47.442Z,25.30
2017-08-17T08:10:15.709Z,25.40
2017-08-17T08:12:43.965Z,25.40
2017-08-17T08:15:12.251Z,25.40
2017-08-17T08:17:40.562Z,25.40
2017-08-17T08:20:08.820Z,25.40
2017-08-17T08:22:37.097Z,25.40
2017-08-17T08:25:05.391Z,25.50
2017-08-17T08:27:33.660Z,25.50
2017-08-17T08:30:01.943Z,25.50
2017-08-17T08:32:31.035Z,25.50
2017-08-17T08:35:00.086Z,25.50
2017-08-17T08:37:28.364Z,25.50
2017-08-17T08:39:57.421Z,25.60
2017-08-17T08:42:25.518Z,25.50
2017-08-17T08:44:53.807Z,25.60
2017-08-17T08:47:22.111Z,25.60
2017-08-17T08:49:50.401Z,25.60
2017-08-17T08:52:18.677Z,25.60
2017-08-17T08:54:46.932Z,25.60
2017-08-17T08:57:15.235Z,25.60
2017-08-17T08:59:43.510Z,25.70
2017-08-17T09:02:11.731Z,25.70
2017-08-17T09:04:39.994Z,25.70
2017-08-17T09:07:08.242Z,25.70
2017-08-17T09:09:36.525Z,25.70
2017-08-17T09:12:04.814Z,25.70
2017-08-17T09:14:33.829Z,25.70
2017-08-17T09:17:02.138Z,25.70
2017-08-17T09:19:30.384Z,25.70
2017-08-17T09:21:58.637Z,25.80
2017-08-17T09:24:26.943Z,25.80
2017-08-17T09:26:56.026Z,25.80
2017-08-17T09:29:24.272Z,25.80
2017-08-17T09:31:53.346Z,25.80
2017-08-17T09:34:22.474Z,25.80
2017-08-17T09:36:50.721Z,25.80
2017-08-17T09:39:19.014Z,25.80
2017-08-17T09:41:47.299Z,25.90
2017-08-17T09:44:16.321Z,25.90
2017-08-17T09:46:44.599Z,25.90
2017-08-17T09:49:12.878Z,25.90
2017-08-17T09:51:41.162Z,25.90
2017-08-17T09:54:10.200Z,25.90
2017-08-17T09:56:38.457Z,25.90
2017-08-17T09:59:06.701Z,26.00
2017-08-17T10:01:34.962Z,25.90
2017-08-17T10:04:03.216Z,26.00
2017-08-17T10:06:31.489Z,26.00
2017-08-17T10:08:59.769Z,26.00
2017-08-17T10:11:28.025Z,26.00
2017-08-17T10:13:56.317Z,26.00
2017-08-17T10:16:25.353Z,26.00
2017-08-17T10:18:53.596Z,26.00
2017-08-17T10:21:21.879Z,26.00
2017-08-17T10:23:50.134Z,26.00
2017-08-17T10:26:18.414Z,26.10
2017-08-17T10:28:46.852Z,26.10
2017-08-17T10:31:15.188Z,26.10
2017-08-17T10:33:43.580Z,26.10
2017-08-17T10:36:11.822Z,26.10
2017-08-17T10:38:40.108Z,26.10
2017-08-17T10:41:09.484Z,26.10
2017-08-17T10:43:37.763Z,26.10
2017-08-17T10:46:06.085Z,26.20
2017-08-17T10:48:34.371Z,26.10
2017-08-17T10:51:02.664Z,26.20
2017-08-17T10:53:31.741Z,26.20
2017-08-17T10:56:00.027Z,26.20
2017-08-17T10:58:28.277Z,26.20
2017-08-17T11:00:57.304Z,26.20
2017-08-17T11:03:25.586Z,26.20
2017-08-17T11:05:53.845Z,26.20
2017-08-17T11:08:22.104Z,26.30
2017-08-17T11:10:50.387Z,26.20
2017-08-17T11:13:19.430Z,26.20
2017-08-17T11:15:47.738Z,26.30
2017-08-17T11:18:16.744Z,26.30
2017-08-17T11:20:45.026Z,26.30
2017-08-17T11:23:13.327Z,26.30
2017-08-17T11:25:42.375Z,26.30
2017-08-17T11:28:10.654Z,26.30
2017-08-17T11:30:38.950Z,26.40
2017-08-17T11:33:07.212Z,26.40
2017-08-17T11:35:35.490Z,26.40
2017-08-17T11:38:03.808Z,26.40
2017-08-17T11:40:32.107Z,26.40
2017-08-17T11:43:00.348Z,26.40
2017-08-17T11:45:28.621Z,26.40
2017-08-17T11:47:56.910Z,26.50
2017-08-17T11:50:25.204Z,26.40
2017-08-17T11:52:54.235Z,26.40
2017-08-17T11:55:22.480Z,26.40
2017-08-17T11:57:50.771Z,26.40
2017-08-17T12:00:19.045Z,26.40
2017-08-17T12:02:47.292Z,26.40
2017-08-17T12:05:15.576Z,26.40
2017-08-17T12:07:44.616Z,26.40
2017-08-17T12:10:12.861Z,26.40
2017-08-17T12:12:41.152Z,26.40
2017-08-17T12:15:09.421Z,26.50
2017-08-17T12:17:37.706Z,26.50
2017-08-17T12:20:06.749Z,26.50
2017-08-17T12:22:35.093Z,26.50
2017-08-17T12:25:03.343Z,26.50
2017-08-17T12:27:31.588Z,26.60
2017-08-17T12:29:59.878Z,26.50
2017-08-17T12:32:28.170Z,26.60
2017-08-17T12:34:57.217Z,26.60
2017-08-17T12:37:25.484Z,26.60
2017-08-17T12:39:53.771Z,26.60
2017-08-17T12:42:22.827Z,26.70
2017-08-17T12:44:51.126Z,26.60
2017-08-17T12:47:19.189Z,26.70
2017-08-17T12:49:47.433Z,26.70
2017-08-17T12:52:16.460Z,26.70
2017-08-17T12:54:44.704Z,26.70
2017-08-17T12:57:12.981Z,26.70
2017-08-17T12:59:41.273Z,26.70
2017-08-17T13:02:09.532Z,26.70
2017-08-17T13:04:38.556Z,26.70
2017-08-17T13:07:06.817Z,26.70
2017-08-17T13:09:35.215Z,26.70
2017-08-17T13:12:03.466Z,26.70
2017-08-17T13:14:31.766Z,26.70
2017-08-17T13:17:00.045Z,26.70
2017-08-17T13:19:28.293Z,26.70
2017-08-17T13:21:57.345Z,26.70
2017-08-17T13:24:25.626Z,26.70
2017-08-17T13:26:54.755Z,26.70
2017-08-17T13:29:23.059Z,26.70
2017-08-17T13:31:52.073Z,26.70
2017-08-17T13:34:20.328Z,26.70
2017-08-17T13:36:48.605Z,26.70
2017-08-17T13:39:16.888Z,26.70
2017-08-17T13:41:45.140Z,26.80
2017-08-17T13:44:13.434Z,26.70
2017-08-17T13:46:42.466Z,26.80
2017-08-17T13:49:10.742Z,26.80
2017-08-17T13:51:39.016Z,26.80
2017-08-17T13:54:07.298Z,26.80
2017-08-17T13:56:36.313Z,26.80
2017-08-17T13:59:04.611Z,26.80
2017-08-17T14:01:32.899Z,26.80
2017-08-17T14:04:01.913Z,26.80
2017-08-17T14:06:30.211Z,26.80
2017-08-17T14:08:58.490Z,26.90
2017-08-17T14:11:27.502Z,26.90
2017-08-17T14:13:55.589Z,26.80
2017-08-17T14:16:23.836Z,26.80
2017-08-17T14:18:52.084Z,26.80
2017-08-17T14:21:20.378Z,26.90
2017-08-17T14:23:48.629Z,26.90
2017-08-17T14:26:16.910Z,26.90
2017-08-17T14:28:45.174Z,26.90
2017-08-17T14:31:14.189Z,26.90
2017-08-17T14:33:42.436Z,26.90
2017-08-17T14:36:10.712Z,26.90
2017-08-17T14:38:39.007Z,26.90
2017-08-17T14:41:07.290Z,26.90
2017-08-17T14:43:35.599Z,26.90
2017-08-17T14:46:03.845Z,26.90
2017-08-17T14:48:32.085Z,26.90
2017-08-17T14:51:01.158Z,27.00
2017-08-17T14:53:30.210Z,27.00
2017-08-17T14:55:58.456Z,27.00
2017-08-17T14:58:26.730Z,27.00
2017-08-17T15:00:54.983Z,27.00
2017-08-17T15:03:23.271Z,27.00
2017-08-17T15:05:52.339Z,27.00
2017-08-17T15:08:20.631Z,27.00
2017-08-17T15:10:48.909Z,27.00
2017-08-17T15:13:17.168Z,27.10
2017-08-17T15:15:45.446Z,27.10
2017-08-17T15:18:13.692Z,27.20
2017-08-17T15:20:42.050Z,27.10
2017-08-17T15:23:10.292Z,27.20
2017-08-17T15:25:38.537Z,27.20
2017-08-17T15:28:06.859Z,27.20
2017-08-17T15:30:35.113Z,27.20
2017-08-17T15:33:03.366Z,27.20
2017-08-17T15:35:31.626Z,27.20
2017-08-17T15:37:59.948Z,27.20
2017-08-17T15:40:28.013Z,27.20
2017-08-17T15:42:56.320Z,27.20
2017-08-17T15:45:24.569Z,27.20
2017-08-17T15:47:52.858Z,27.20
2017-08-17T15:50:21.133Z,27.20
2017-08-17T15:52:50.201Z,27.20
2017-08-17T15:55:19.339Z,27.20
2017-08-17T15:57:47.640Z,27.20
2017-08-17T16:00:16.690Z,27.20
2017-08-17T16:02:44.938Z,27.20
2017-08-17T16:05:13.210Z,27.20
2017-08-17T16:07:41.494Z,27.20
2017-08-17T16:10:09.749Z,27.30
2017-08-17T16:12:38.008Z,27.30
2017-08-17T16:15:06.282Z,27.30
2017-08-17T16:17:35.322Z,27.30
2017-08-17T16:20:03.623Z,27.30
2017-08-17T16:22:32.628Z,27.30
2017-08-17T16:25:00.880Z,27.30
2017-08-17T16:27:29.177Z,27.30
2017-08-17T16:29:57.449Z,27.30
2017-08-17T16:32:25.729Z,27.30
2017-08-17T16:34:54.031Z,27.40
2017-08-17T16:37:22.309Z,27.40
2017-08-17T16:39:50.373Z,27.40
2017-08-17T16:42:18.674Z,27.40
2017-08-17T16:44:47.692Z,27.40
2017-08-17T16:47:15.945Z,27.40
2017-08-17T16:49:44.232Z,27.30
2017-08-17T16:52:12.492Z,27.10
2017-08-17T16:54:40.817Z,26.90
2017-08-17T16:57:09.122Z,26.80
2017-08-17T16:59:37.386Z,26.70
2017-08-17T17:02:05.667Z,26.70
2017-08-17T17:04:34.717Z,26.80
2017-08-17T17:07:02.995Z,26.80
2017-08-17T17:09:31.297Z,26.90
2017-08-17T17:11:59.615Z,27.00
2017-08-17T17:14:27.909Z,27.00
2017-08-17T17:16:56.200Z,27.00
2017-08-17T17:19:24.477Z,27.00
2017-08-17T17:21:52.728Z,27.10
2017-08-17T17:24:20.835Z,27.10
2017-08-17T17:26:49.868Z,27.20
2017-08-17T17:29:18.120Z,27.10
2017-08-17T17:31:46.373Z,27.20
2017-08-17T17:34:15.330Z,27.20
2017-08-17T17:36:43.601Z,27.20
2017-08-17T17:39:11.889Z,27.20
2017-08-17T17:41:41.086Z,27.20
2017-08-17T17:44:10.369Z,27.20
2017-08-17T17:46:38.624Z,27.20
2017-08-17T17:49:06.884Z,27.20
2017-08-17T17:51:35.125Z,27.30
2017-08-17T17:54:03.382Z,27.30
2017-08-17T17:56:31.653Z,27.30
2017-08-17T17:58:59.934Z,27.30
2017-08-17T18:01:28.952Z,27.30
2017-08-17T18:03:57.251Z,27.30
2017-08-17T18:06:25.534Z,27.30
2017-08-17T18:08:54.583Z,27.30
2017-08-17T18:11:22.865Z,27.30
2017-08-17T18:13:51.125Z,27.30
2017-08-17T18:16:19.411Z,27.40
2017-08-17T18:18:47.697Z,27.40
2017-08-17T18:21:15.957Z,27.40
2017-08-17T18:23:45.508Z,26.90
2017-08-17T18:26:14.538Z,26.70
2017-08-17T18:28:42.826Z,26.70
2017-08-17T18:31:11.089Z,26.40
2017-08-17T18:33:39.386Z,26.20
2017-08-17T18:36:07.673Z,25.90
2017-08-17T18:38:35.925Z,25.70
2017-08-17T18:41:04.249Z,25.40
2017-08-17T18:43:33.324Z,25.00
2017-08-17T18:46:02.354Z,24.80
2017-08-17T18:48:30.646Z,24.90
2017-08-17T18:50:58.939Z,24.70
2017-08-17T18:53:27.239Z,24.60
2017-08-17T18:55:55.552Z,24.50
2017-08-17T18:58:24.588Z,24.30
2017-08-17T19:00:52.869Z,24.30
2017-08-17T19:03:21.153Z,24.30
2017-08-17T19:05:49.441Z,24.20
2017-08-17T19:08:17.706Z,24.20
2017-08-17T19:10:46.378Z,24.50
2017-08-17T19:13:14.676Z,24.80
2017-08-17T19:15:43.734Z,25.30
2017-08-17T19:18:12.024Z,25.30
2017-08-17T19:20:40.283Z,25.60
2017-08-17T19:23:08.527Z,25.70
2017-08-17T19:25:36.806Z,25.90
2017-08-17T19:28:05.854Z,26.10
2017-08-17T19:30:34.141Z,26.10
2017-08-17T19:33:03.182Z,26.30
2017-08-17T19:35:31.472Z,26.30
2017-08-17T19:37:59.721Z,26.30
2017-08-17T19:40:28.313Z,26.40
2017-08-17T19:42:57.330Z,26.40
2017-08-17T19:45:25.853Z,26.50
2017-08-17T19:47:54.888Z,26.60
2017-08-17T19:50:23.177Z,26.50
2017-08-17T19:52:51.425Z,26.60
2017-08-17T19:55:19.726Z,26.60
2017-08-17T19:57:47.972Z,26.60
2017-08-17T20:00:17.031Z,26.70
2017-08-17T20:02:45.302Z,26.70
2017-08-17T20:05:14.313Z,26.80
2017-08-17T20:07:42.595Z,26.70
2017-08-17T20:10:10.901Z,26.80
2017-08-17T20:12:39.956Z,26.80
2017-08-17T20:15:08.209Z,26.80
2017-08-17T20:17:36.847Z,26.80
2017-08-17T20:20:05.092Z,26.80
2017-08-17T20:22:33.345Z,26.80
2017-08-17T20:25:01.634Z,26.80
2017-08-17T20:27:29.897Z,26.90
2017-08-17T20:29:58.175Z,26.90
2017-08-17T20:32:26.482Z,26.90
2017-08-17T20:34:54.736Z,27.00
2017-08-17T20:37:23.790Z,27.00
2017-08-17T20:39:52.061Z,27.00
2017-08-17T20:42:21.114Z,27.00
2017-08-17T20:44:49.368Z,27.00
2017-08-17T20:47:17.662Z,27.00
2017-08-17T20:49:46.677Z,27.10
2017-08-17T20:52:14.949Z,27.00
2017-08-17T20:54:43.233Z,27.00
2017-08-17T20:57:11.517Z,27.10
2017-08-17T20:59:40.536Z,27.10
2017-08-17T21:02:08.799Z,27.10
2017-08-17T21:04:37.078Z,27.10
2017-08-17T21:07:05.357Z,27.10
2017-08-17T21:09:33.424Z,27.20
2017-08-17T21:12:02.470Z,27.20
2017-08-17T21:14:30.722Z,27.10
2017-08-17T21:16:59.030Z,27.20
2017-08-17T21:19:27.280Z,27.20
2017-08-17T21:21:56.521Z,26.40
2017-08-17T21:24:24.817Z,26.30
2017-08-17T21:26:53.870Z,25.50
2017-08-17T21:29:22.162Z,25.50
2017-08-17T21:31:51.239Z,24.90
2017-08-17T21:34:20.295Z,24.70
2017-08-17T21:36:48.540Z,24.70
2017-08-17T21:39:16.824Z,24.60
2017-08-17T21:41:45.115Z,24.50
2017-08-17T21:44:13.410Z,24.40
2017-08-17T21:46:41.717Z,24.20
2017-08-17T21:49:10.748Z,24.10
2017-08-17T21:51:39.038Z,24.10
2017-08-17T21:54:07.322Z,24.00
2017-08-17T21:56:36.257Z,23.90
2017-08-17T21:59:05.310Z,23.80
2017-08-17T22:01:33.622Z,23.80
2017-08-17T22:04:01.911Z,23.80
2017-08-17T22:06:30.162Z,24.10
2017-08-17T22:08:58.458Z,24.40
2017-08-17T22:11:26.742Z,24.70
2017-08-17T22:13:54.993Z,25.00
2017-08-17T22:16:24.026Z,25.40
2017-08-17T22:18:52.122Z,25.40
2017-08-17T22:21:21.146Z,25.70
2017-08-17T22:23:49.445Z,25.70
2017-08-17T22:26:17.701Z,25.80
2017-08-17T22:28:45.949Z,25.90
2017-08-17T22:31:14.237Z,26.00
2017-08-17T22:33:43.252Z,26.20
2017-08-17T22:36:11.320Z,26.10
2017-08-17T22:38:39.619Z,26.30
2017-08-17T22:41:07.677Z,26.30
2017-08-17T22:43:35.923Z,26.40
2017-08-17T22:46:04.236Z,26.40
2017-08-17T22:48:32.485Z,26.40
2017-08-17T22:51:00.732Z,26.50
2017-08-17T22:53:29.770Z,26.50
2017-08-17T22:55:58.017Z,26.50
2017-08-17T22:58:26.307Z,26.50
2017-08-17T23:00:54.611Z,26.60
2017-08-17T23:03:22.869Z,26.60
2017-08-17T23:05:51.137Z,26.60
2017-08-17T23:08:19.426Z,26.70
2017-08-17T23:10:47.424Z,26.70
2017-08-17T23:13:16.466Z,26.70
2017-08-17T23:15:44.770Z,26.70
2017-08-17T23:18:13.025Z,26.80
2017-08-17T23:20:41.272Z,26.80
2017-08-17T23:23:10.312Z,26.80
2017-08-17T23:25:38.592Z,26.80
2017-08-17T23:28:06.840Z,26.80
2017-08-17T23:30:35.134Z,26.80
2017-08-17T23:33:04.178Z,26.90
2017-08-17T23:35:32.436Z,26.90
2017-08-17T23:38:00.730Z,26.90
2017-08-17T23:40:29.778Z,27.00
2017-08-17T23:42:58.063Z,26.90
2017-08-17T23:45:27.127Z,26.90
2017-08-17T23:47:55.410Z,27.00
2017-08-17T23:50:24.464Z,27.00
2017-08-17T23:52:52.973Z,27.00
2017-08-17T23:55:21.256Z,27.00
2017-08-17T23:57:49.511Z,27.00
